Rockwood, PA

10:31 AM EST on December 05, 2016 (GMT -0500)
Laurel Highlands | | Change Station

Elev 1932 ft 39.94 °N, 79.13 °W | Updated 16 seconds ago

Mostly Cloudy
Mostly Cloudy
38.7 °F
Feels Like 33 °F
N
8.3
Wind Variable Wind from West
Gusts 9.8 mph

Today
High -- | Low -- °F
--% Chance of Precip.
Yesterday
High -- | Low -- °F
Precip. -- in
Pressure 29.98 in
Visibility 10.0 miles
Clouds Scattered Clouds 1100 ft
Mostly Cloudy 1700 ft
Windchill 33 °F
Dew Point 33 °F
Humidity 81%
Rainfall 0.20 in
Snow Depth Not available.
7:23 AM 4:51 PM
Waxing Crescent, 32% visible
METAR K2G4 051515Z AUTO 30012G21KT 10SM SCT011 BKN017 01/00 A2998 RMK AO1
Pressure 29.98 in
Visibility 10.0 miles
Clouds Scattered Clouds 1100 ft
Mostly Cloudy 1700 ft
Windchill 33 °F
Dew Point 33 °F
Humidity 81%
Rainfall 0.20 in
Snow Depth Not available.
7:23 AM 4:51 PM
Waxing Crescent, 32% visible
METAR K2G4 051515Z AUTO 30012G21KT 10SM SCT011 BKN017 01/00 A2998 RMK AO1

10-Day Weather Forecast

Almanac

Astronomy

Dec. 05, 2016 Rise Set
Actual Time
Civil Twilight
Nautical Twilight
Astronomical Twilight
Moon
Length of Visible Light
Length of Day
Tomorrow will be .
, % of the Moon is Illuminated

Today's Extremes

State Highs State Lows

Community

WunderPhotos

Upload Photos

1,955,790 photos uploaded!

WunderBlog® & News

Nearby

Air Quality

  Air Quality AQ Index Pollutant
Not available.

Snow Depth

Station Depth Elevation

Earthquake Activity

City Distance Mag. Time & Date
Minimum magnitude displayed is 2.5.

Coastal Water Temperatures

Place Temperature

Stations

Nearby Weather Stations

Station Location Temp. Windchill Dew Point Humidity Wind Precip. Elev Updated Type
                   

Watches & Warnings

There are currently no watches in effect.